Time;durP1;ratioP1;P1;durP2;ratioP2;P2;SDS_P1;SDS_P2;PMS_P1;PMS_P2;Temp;Humidity;BMP_temperature;BMP_pressure;BME280_temperature;BME280_humidity;BME280_pressure;Samples;Min_cycle;Max_cycle;Signal;HPM_P1;HPM_P2
2022/04/06 00:00:05;;;;;;;13.00;10.52;;;;;;;1.60;84.03;97314.09;4964292;28;20108;-81
2022/04/06 00:02:31;;;;;;;14.77;10.18;;;;;;;1.90;84.21;97356.50;4964383;28;20034;-77
2022/04/06 00:04:57;;;;;;;11.82;9.63;;;;;;;1.89;83.99;97347.13;4963640;28;20042;-82
2022/04/06 00:07:23;;;;;;;10.85;8.18;;;;;;;1.91;83.45;97335.19;4984002;28;20506;-80
2022/04/06 00:09:48;;;;;;;8.68;7.00;;;;;;;1.92;82.77;97351.38;4987243;28;20505;-78
2022/04/06 00:12:14;;;;;;;11.02;8.02;;;;;;;2.07;82.61;97379.41;5005870;28;20082;-77
2022/04/06 00:14:40;;;;;;;8.52;7.07;;;;;;;1.98;82.20;97359.03;4962286;28;20062;-77
2022/04/06 00:17:06;;;;;;;7.97;6.25;;;;;;;1.70;81.88;97325.97;4960886;28;20045;-79
2022/04/06 00:19:32;;;;;;;8.75;6.80;;;;;;;1.87;82.08;97340.31;4977227;28;20045;-76
2022/04/06 00:21:58;;;;;;;8.05;6.10;;;;;;;2.07;82.00;97386.22;5008861;28;20031;-77
2022/04/06 00:24:24;;;;;;;7.97;6.38;;;;;;;1.84;81.90;97358.25;4952233;28;20034;-79
2022/04/06 00:26:50;;;;;;;8.57;6.80;;;;;;;1.52;81.41;97326.94;4979786;28;20034;-80
2022/04/06 00:29:15;;;;;;;8.60;6.75;;;;;;;1.71;81.88;97352.38;5011304;28;20042;-79
2022/04/06 00:31:41;;;;;;;8.50;6.70;;;;;;;1.93;82.09;97392.28;4962432;28;20042;-77
2022/04/06 00:34:07;;;;;;;8.82;6.45;;;;;;;1.73;82.36;97366.81;5011705;28;20485;-78
2022/04/06 00:36:32;;;;;;;9.40;6.90;;;;;;;1.69;82.05;97357.47;4984012;28;20141;-78
2022/04/06 00:38:58;;;;;;;8.85;7.00;;;;;;;1.77;82.39;97375.34;4990123;28;20038;-78
2022/04/06 00:41:24;;;;;;;10.13;7.25;;;;;;;1.82;81.46;97381.25;4994526;28;20542;-77
2022/04/06 00:44:09;;;;;;;8.85;7.07;;;;;;;2.03;81.16;97406.69;4978071;28;20092;-78
2022/04/06 00:46:35;;;;;;;9.45;7.50;;;;;;;1.99;81.41;97402.47;4977031;28;20046;-77
2022/04/06 00:49:01;;;;;;;9.48;7.25;;;;;;;1.84;81.38;97374.44;5026694;28;20045;-78
2022/04/06 00:51:26;;;;;;;9.57;7.88;;;;;;;1.83;80.81;97402.56;5003821;28;20046;-77
2022/04/06 00:53:52;;;;;;;8.60;7.05;;;;;;;1.86;81.09;97423.00;5002852;28;20046;-76
2022/04/06 00:56:18;;;;;;;10.30;7.93;;;;;;;1.84;81.45;97425.56;5026669;28;20046;-78
2022/04/06 00:58:44;;;;;;;10.13;7.85;;;;;;;1.70;81.26;97406.91;5010016;28;20409;-80
2022/04/06 01:01:09;;;;;;;8.95;7.80;;;;;;;1.69;81.75;97410.28;5009771;28;20049;-78
2022/04/06 01:03:35;;;;;;;9.15;7.22;;;;;;;1.64;81.77;97395.00;5009912;28;20049;-76
2022/04/06 01:06:01;;;;;;;9.07;7.28;;;;;;;1.78;81.65;97435.81;4983069;28;20038;-76
2022/04/06 01:08:27;;;;;;;10.75;6.93;;;;;;;1.88;81.63;97445.16;4987388;28;20081;-75
2022/04/06 01:10:52;;;;;;;8.02;6.40;;;;;;;1.60;81.47;97405.22;5002082;28;20046;-79
2022/04/06 01:13:18;;;;;;;7.97;6.22;;;;;;;1.51;81.21;97394.22;4995155;28;20092;-78
2022/04/06 01:15:44;;;;;;;9.00;6.88;;;;;;;1.72;81.07;97426.47;5002874;28;20035;-76
2022/04/06 01:18:10;;;;;;;8.18;5.97;;;;;;;1.81;80.61;97452.84;4972269;28;20061;-78
2022/04/06 01:20:36;;;;;;;6.70;5.00;;;;;;;1.45;80.01;97424.88;5005859;28;20046;-77
2022/04/06 01:23:03;;;;;;;7.00;5.50;;;;;;;1.41;80.23;97430.00;4990034;28;20077;-77
2022/04/06 01:25:29;;;;;;;7.40;5.80;;;;;;;1.46;79.63;97449.56;5021078;28;20481;-77
2022/04/06 01:27:54;;;;;;;6.35;5.15;;;;;;;1.66;79.66;97466.56;4993137;28;20045;-77
2022/04/06 01:30:20;;;;;;;6.30;4.68;;;;;;;1.64;79.20;97476.75;5000386;28;20038;-77
2022/04/06 01:32:46;;;;;;;5.50;4.45;;;;;;;1.62;78.11;97480.19;5017755;28;20054;-77
2022/04/06 01:35:12;;;;;;;7.10;4.88;;;;;;;1.30;78.55;97437.72;5009146;28;20050;-77
2022/04/06 01:37:37;;;;;;;5.45;4.40;;;;;;;1.31;78.32;97452.19;4976719;28;20077;-78
2022/04/06 01:40:04;;;;;;;6.20;4.60;;;;;;;1.30;78.17;97465.81;5010022;28;20069;-78
2022/04/06 01:42:30;;;;;;;6.03;4.55;;;;;;;1.27;78.19;97476.88;4995282;28;20038;-79
2022/04/06 01:44:56;;;;;;;6.63;4.47;;;;;;;1.40;78.03;97510.91;5010038;28;20100;-78
2022/04/06 01:47:22;;;;;;;5.57;4.32;;;;;;;1.22;78.21;97475.19;4995158;28;20118;-77
2022/04/06 01:52:32;;;;;;;5.40;3.80;;;;;;;1.18;77.91;97473.50;4978222;28;20512;-79
2022/04/06 01:55:02;;;;;;;4.63;3.92;;;;;;;1.04;77.04;97495.66;4994927;28;20045;-78
2022/04/06 01:57:29;;;;;;;5.07;4.15;;;;;;;1.08;77.56;97508.41;5010974;28;20401;-79
2022/04/06 01:59:55;;;;;;;3.72;3.10;;;;;;;1.23;77.53;97533.91;4979758;28;20026;-78
2022/04/06 02:02:21;;;;;;;5.32;3.85;;;;;;;1.27;76.81;97545.00;4976376;28;20096;-77
2022/04/06 02:04:47;;;;;;;4.70;3.45;;;;;;;1.15;76.31;97529.72;4976670;28;20034;-77
2022/04/06 02:07:13;;;;;;;4.55;3.20;;;;;;;1.16;76.66;97545.00;5008969;28;20053;-76
2022/04/06 02:09:39;;;;;;;;;;;;;;;1.19;76.17;97541.59;4993355;28;20073;-77
2022/04/06 02:12:06;;;;;;;4.57;3.10;;;;;;;1.24;75.60;97561.19;5025770;28;19938;-76
2022/04/06 02:14:32;;;;;;;4.70;3.20;;;;;;;0.83;74.67;97505.03;5041902;28;20045;-77
2022/04/06 02:16:58;;;;;;;4.28;2.88;;;;;;;1.12;75.27;97561.19;5025807;28;20043;-77
2022/04/06 02:19:24;;;;;;;3.33;2.42;;;;;;;1.07;75.11;97554.38;4993534;28;20034;-78
2022/04/06 02:21:50;;;;;;;4.10;1.98;;;;;;;1.13;74.90;97531.38;4993006;28;20195;-76
2022/04/06 02:24:17;;;;;;;3.35;2.40;;;;;;;1.26;73.44;97549.25;4992916;28;20031;-77
2022/04/06 02:26:43;;;;;;;3.10;2.10;;;;;;;1.22;72.67;97536.50;5025454;28;20046;-77
2022/04/06 02:29:08;;;;;;;2.90;2.17;;;;;;;1.31;72.52;97538.19;5009545;28;20382;-77
2022/04/06 02:31:34;;;;;;;3.65;2.03;;;;;;;1.19;71.10;97534.81;4996238;28;20394;-78
2022/04/06 02:34:00;;;;;;;2.92;2.03;;;;;;;1.33;71.49;97545.00;5002550;28;20046;-76
2022/04/06 02:36:26;;;;;;;2.83;1.85;;;;;;;1.45;71.40;97556.88;5003288;28;20042;-77
2022/04/06 02:38:51;;;;;;;2.88;2.10;;;;;;;1.22;69.66;97544.16;4993047;28;20049;-77
2022/04/06 02:41:17;;;;;;;2.90;1.80;;;;;;;0.93;70.33;97516.94;4977315;28;20039;-77
2022/04/06 02:43:43;;;;;;;2.40;1.52;;;;;;;1.40;70.45;97579.88;5019644;28;20081;-77
2022/04/06 02:46:09;;;;;;;3.33;2.05;;;;;;;1.19;69.88;97533.94;4976647;28;20046;-78
2022/04/06 02:48:34;;;;;;;3.53;1.70;;;;;;;1.49;69.15;97592.66;5009829;28;20045;-78
2022/04/06 02:51:00;;;;;;;2.30;1.58;;;;;;;1.40;68.97;97571.38;4989046;28;20102;-77
2022/04/06 02:53:26;;;;;;;2.92;1.65;;;;;;;1.30;68.68;97575.66;5000526;28;20070;-77
2022/04/06 02:55:51;;;;;;;2.25;1.50;;;;;;;1.31;69.06;97582.44;4994223;28;20054;-76
2022/04/06 02:58:17;;;;;;;2.20;1.48;;;;;;;1.32;68.71;97606.28;5012596;28;20060;-79
2022/04/06 03:00:43;;;;;;;2.75;1.65;;;;;;;1.41;68.98;97614.78;4980031;28;20545;-77
2022/04/06 03:03:08;;;;;;;3.17;1.48;;;;;;;1.31;67.96;97599.47;4992279;28;20042;-77
2022/04/06 03:05:34;;;;;;;3.88;1.67;;;;;;;0.97;68.05;97579.91;4987439;28;20058;-75
2022/04/06 03:08:00;;;;;;;2.40;1.50;;;;;;;1.04;68.63;97601.19;4988574;28;20116;-77
2022/04/06 03:10:26;;;;;;;3.00;1.33;;;;;;;0.97;69.14;97595.22;5005588;28;20042;-78
2022/04/06 03:12:52;;;;;;;2.10;1.40;;;;;;;1.12;68.38;97616.50;4964006;28;20038;-78
2022/04/06 03:15:20;;;;;;;2.47;1.55;;;;;;;0.96;68.45;97626.72;4954613;28;20042;-77
2022/04/06 03:17:46;;;;;;;5.03;1.77;;;;;;;0.90;69.76;97626.69;4995703;28;20046;-76
2022/04/06 03:20:14;;;;;;;2.47;1.60;;;;;;;0.90;69.50;97608.81;4978991;28;20038;-78
2022/04/06 03:22:41;;;;;;;2.33;1.48;;;;;;;0.71;68.22;97597.75;4959080;28;20388;-79
2022/04/06 03:25:07;;;;;;;2.90;1.70;;;;;;;0.90;68.39;97636.91;5004223;28;20424;-78
2022/04/06 03:27:34;;;;;;;2.70;1.70;;;;;;;0.67;68.67;97624.09;4980689;28;20049;-76
2022/04/06 03:30:06;;;;;;;2.67;1.92;;;;;;;0.62;68.92;97645.34;4992469;28;20041;-76
2022/04/06 03:32:32;;;;;;;2.50;1.65;;;;;;;0.72;69.26;97639.41;5010065;28;20051;-78
2022/04/06 03:34:58;;;;;;;3.00;1.40;;;;;;;0.42;68.46;97620.66;4970544;28;20072;-78
2022/04/06 03:37:24;;;;;;;2.35;1.40;;;;;;;0.33;69.50;97630.81;4960042;28;20047;-76
2022/04/06 03:39:49;;;;;;;;;;;;;;;0.52;70.17;97670.00;4960437;28;20035;-76
2022/04/06 03:42:15;;;;;;;1.80;1.20;;;;;;;0.35;70.65;97641.84;5008838;28;19918;-76
2022/04/06 03:44:41;;;;;;;2.95;1.80;;;;;;;0.33;69.82;97653.75;4978998;28;20077;-77
2022/04/06 03:47:06;;;;;;;2.03;1.50;;;;;;;0.52;70.02;97675.09;4959801;28;20038;-77
2022/04/06 03:49:32;;;;;;;2.92;1.70;;;;;;;0.58;69.98;97679.34;4962309;28;20043;-76
2022/04/06 03:51:58;;;;;;;3.08;1.50;;;;;;;0.71;70.65;97676.00;4976801;28;20050;-77
2022/04/06 03:54:24;;;;;;;3.35;2.10;;;;;;;0.64;69.56;97626.66;5008766;28;20042;-77
2022/04/06 03:56:49;;;;;;;2.65;1.55;;;;;;;0.85;69.01;97628.38;4960226;28;20047;-78
2022/04/06 03:59:15;;;;;;;3.08;1.42;;;;;;;1.00;68.00;97658.19;5008763;28;20066;-79
2022/04/06 04:01:41;;;;;;;4.10;1.48;;;;;;;1.00;67.97;97674.34;4975997;28;20057;-79
2022/04/06 04:04:06;;;;;;;4.05;1.40;;;;;;;1.04;68.35;97675.22;4976050;28;20039;-80
2022/04/06 04:06:32;;;;;;;3.90;1.55;;;;;;;1.07;68.63;97679.50;4944110;28;20414;-79
2022/04/06 04:08:58;;;;;;;3.13;1.60;;;;;;;0.84;69.09;97675.19;4975401;28;20063;-77
2022/04/06 04:11:24;;;;;;;2.70;1.30;;;;;;;0.85;68.94;97697.31;4975998;28;20426;-77
2022/04/06 04:13:49;;;;;;;5.40;1.50;;;;;;;0.93;69.93;97718.63;4959640;28;20037;-78
2022/04/06 04:16:15;;;;;;;3.35;1.70;;;;;;;0.63;69.41;97682.78;4943575;28;20046;-77
2022/04/06 04:18:41;;;;;;;2.40;1.40;;;;;;;0.73;69.60;97702.38;4959626;28;20046;-77
2022/04/06 04:23:52;;;;;;;2.83;1.55;;;;;;;1.04;69.10;97702.47;4962264;28;20410;-79
2022/04/06 04:26:17;;;;;;;2.33;1.60;;;;;;;1.19;69.25;97722.91;4943950;28;20034;-78
2022/04/06 04:28:43;;;;;;;2.60;1.52;;;;;;;1.05;68.57;97727.13;4960286;28;20093;-77
2022/04/06 04:31:08;;;;;;;2.70;1.67;;;;;;;0.79;69.53;97722.81;4972778;28;20090;-77
2022/04/06 04:33:34;;;;;;;3.60;1.42;;;;;;;0.88;70.29;97745.81;5011600;28;20461;-80
2022/04/06 04:36:00;;;;;;;3.97;1.50;;;;;;;1.02;69.52;97744.16;4995700;28;20124;-78
2022/04/06 04:38:26;;;;;;;2.50;1.75;;;;;;;0.77;69.48;97733.00;4978940;28;20045;-78
2022/04/06 04:40:52;;;;;;;2.40;1.63;;;;;;;0.88;70.47;97755.19;4995097;28;20042;-77
2022/04/06 04:43:17;;;;;;;3.63;1.60;;;;;;;0.91;69.70;97760.28;4965319;28;20043;-79
2022/04/06 04:45:43;;;;;;;2.17;1.58;;;;;;;0.81;69.84;97759.41;4994983;28;20185;-79
2022/04/06 04:48:09;;;;;;;2.30;1.40;;;;;;;0.69;70.18;97736.41;4995920;28;20042;-78
2022/04/06 04:50:35;;;;;;;1.77;1.20;;;;;;;0.89;68.67;97770.50;4995599;28;20041;-79
2022/04/06 04:53:00;;;;;;;1.75;1.48;;;;;;;0.75;68.64;97759.38;4996320;28;20093;-79
2022/04/06 04:55:26;;;;;;;1.80;1.20;;;;;;;0.62;68.65;97765.28;4993855;28;20042;-79
2022/04/06 04:57:52;;;;;;;1.80;1.20;;;;;;;0.73;68.38;97763.63;5014744;28;20046;-78
2022/04/06 05:00:18;;;;;;;2.15;1.20;;;;;;;0.79;67.81;97760.25;4978873;28;20046;-79
2022/04/06 05:02:43;;;;;;;2.63;1.17;;;;;;;1.08;67.26;97775.66;4994475;28;20041;-78
2022/04/06 05:05:10;;;;;;;1.63;1.00;;;;;;;1.21;65.72;97796.16;4995103;28;20038;-80
2022/04/06 05:07:38;;;;;;;2.35;1.20;;;;;;;1.13;66.09;97782.50;4995142;28;20058;-80
2022/04/06 05:10:08;;;;;;;3.53;1.10;;;;;;;1.05;66.11;97758.63;4980180;28;20049;-77
2022/04/06 05:12:33;;;;;;;1.90;1.00;;;;;;;1.26;65.05;97814.03;4966110;28;20076;-78
2022/04/06 05:14:59;;;;;;;1.30;0.90;;;;;;;1.04;63.67;97809.69;4995750;28;20053;-78
2022/04/06 05:17:26;;;;;;;1.67;0.90;;;;;;;0.60;63.67;97778.03;5029131;28;20053;-79
2022/04/06 05:19:52;;;;;;;1.58;0.90;;;;;;;0.87;63.72;97825.81;5027453;28;20064;-78
2022/04/06 05:22:18;;;;;;;1.67;0.88;;;;;;;0.54;64.49;97772.88;5011943;28;20050;-77
2022/04/06 05:24:43;;;;;;;1.20;0.80;;;;;;;0.84;64.76;97795.16;5013160;28;20033;-79
2022/04/06 05:27:09;;;;;;;1.15;0.90;;;;;;;1.15;64.00;97800.41;4978153;28;20101;-78
2022/04/06 05:29:35;;;;;;;2.17;0.90;;;;;;;1.17;62.99;97826.78;4994464;28;20493;-77
2022/04/06 05:32:01;;;;;;;1.30;0.80;;;;;;;1.09;63.45;97815.66;4997551;28;20045;-78
2022/04/06 05:34:26;;;;;;;1.50;0.80;;;;;;;0.82;63.86;97794.28;4995237;28;20049;-78
2022/04/06 05:36:52;;;;;;;1.80;0.90;;;;;;;1.04;63.98;97836.09;4997725;28;20064;-80
2022/04/06 05:39:18;;;;;;;1.83;0.90;;;;;;;1.16;63.76;97833.59;5017847;28;20038;-78
2022/04/06 05:41:44;;;;;;;1.80;0.93;;;;;;;1.19;63.14;97842.94;4974207;28;20097;-78
2022/04/06 05:44:10;;;;;;;2.85;0.90;;;;;;;1.21;63.60;97846.38;4967330;28;20519;-78
2022/04/06 05:46:35;;;;;;;1.58;1.10;;;;;;;0.76;63.99;97794.25;4996145;28;20094;-78
2022/04/06 05:49:01;;;;;;;1.42;0.85;;;;;;;0.85;64.29;97817.28;4978796;28;20602;-78
2022/04/06 05:51:27;;;;;;;2.45;1.00;;;;;;;0.95;63.99;97834.34;4982500;28;20100;-80
2022/04/06 05:53:53;;;;;;;1.83;1.05;;;;;;;1.00;63.54;97842.00;4982547;28;20038;-77
2022/04/06 05:56:18;;;;;;;1.95;1.00;;;;;;;0.98;64.55;97852.22;4979949;28;20052;-80
2022/04/06 05:58:45;;;;;;;1.58;0.95;;;;;;;1.24;64.43;97861.72;4978988;28;20050;-78
2022/04/06 06:01:10;;;;;;;1.63;1.10;;;;;;;1.01;64.02;97823.31;5010846;28;20413;-79
2022/04/06 06:03:36;;;;;;;1.15;0.80;;;;;;;0.96;63.21;97825.84;4999681;28;20039;-78
2022/04/06 06:06:02;;;;;;;1.60;0.88;;;;;;;0.96;62.65;97828.41;4945858;28;20472;-79
2022/04/06 06:08:29;;;;;;;2.00;1.10;;;;;;;1.17;63.65;97842.09;4986596;28;20051;-80
2022/04/06 06:10:55;;;;;;;1.40;0.90;;;;;;;1.41;63.40;97880.50;4995528;28;20034;-79
2022/04/06 06:13:23;;;;;;;1.73;0.90;;;;;;;1.55;63.47;97882.25;5010573;28;20047;-80
2022/04/06 06:15:48;;;;;;;;;;;;;;;1.70;63.10;97875.50;4977347;28;20038;-78
2022/04/06 06:18:14;;;;;;;1.77;0.98;;;;;;;1.62;61.89;97873.75;5009185;28;20274;-79
2022/04/06 06:20:40;;;;;;;1.83;1.05;;;;;;;1.68;61.98;97874.63;4982086;28;20039;-78
2022/04/06 06:23:06;;;;;;;1.23;0.90;;;;;;;1.84;62.18;97890.00;4991244;28;20058;-78
2022/04/06 06:25:34;;;;;;;2.28;1.10;;;;;;;1.55;60.99;97842.22;4979819;28;20043;-81
2022/04/06 06:27:59;;;;;;;1.23;0.80;;;;;;;1.51;60.61;97858.38;4995879;28;20042;-78
2022/04/06 06:30:27;;;;;;;0.85;0.60;;;;;;;1.66;60.56;97880.59;5000520;28;20039;-79
2022/04/06 06:32:54;;;;;;;1.58;0.70;;;;;;;1.77;59.32;97886.56;4994195;28;20039;-80
2022/04/06 06:35:20;;;;;;;1.45;0.80;;;;;;;1.58;58.72;97892.50;4948543;28;20043;-78
2022/04/06 06:37:47;;;;;;;1.20;0.80;;;;;;;1.48;59.00;97854.13;4998333;28;20041;-78
2022/04/06 06:40:13;;;;;;;0.60;0.60;;;;;;;1.69;59.81;97886.53;4995512;28;20509;-78
2022/04/06 06:42:39;;;;;;;1.00;0.73;;;;;;;1.64;59.35;97869.50;4994575;28;20030;-78
2022/04/06 06:45:05;;;;;;;1.73;0.88;;;;;;;1.35;58.03;97862.59;4990226;28;20046;-78
2022/04/06 06:47:30;;;;;;;;;;;;;;;1.58;58.98;97913.78;4986147;28;20042;-78
2022/04/06 06:49:56;;;;;;;2.53;0.90;;;;;;;1.62;58.74;97912.09;4999979;28;20024;-80
2022/04/06 06:52:23;;;;;;;1.30;0.77;;;;;;;1.37;58.69;97880.47;5000473;28;20553;-79
2022/04/06 06:54:49;;;;;;;1.40;0.70;;;;;;;1.81;58.21;97916.41;4991845;28;20146;-78
2022/04/06 06:57:16;;;;;;;0.77;0.60;;;;;;;1.91;57.44;97907.06;5009485;28;20062;-79
2022/04/06 06:59:44;;;;;;;1.85;0.80;;;;;;;1.99;56.69;97926.69;5003984;28;20081;-81
2022/04/06 07:02:10;;;;;;;1.45;0.70;;;;;;;1.39;56.87;97855.81;4985502;28;20035;-79
2022/04/06 07:04:36;;;;;;;1.35;0.60;;;;;;;1.95;56.86;97896.00;4952530;28;20124;-78
2022/04/06 07:07:02;;;;;;;5.10;0.80;;;;;;;1.80;55.96;97873.81;4999667;28;20026;-80
2022/04/06 07:09:27;;;;;;;1.70;0.68;;;;;;;1.82;55.41;97886.59;5016856;28;20046;-79
2022/04/06 07:11:53;;;;;;;2.95;0.80;;;;;;;1.70;54.69;97884.88;5016739;28;20062;-78
2022/04/06 07:14:20;;;;;;;2.72;0.70;;;;;;;1.49;53.32;97886.50;4989634;28;20080;-78
2022/04/06 07:16:46;;;;;;;2.72;0.60;;;;;;;1.47;53.98;97895.88;5015449;28;20038;-78
2022/04/06 07:19:11;;;;;;;1.17;0.70;;;;;;;1.58;54.70;97882.28;5015709;28;20049;-77
2022/04/06 07:21:37;;;;;;;2.38;0.70;;;;;;;1.86;52.61;97924.94;5032201;28;20041;-78
2022/04/06 07:24:03;;;;;;;1.73;0.60;;;;;;;1.57;52.11;97901.00;4998287;28;20038;-78
2022/04/06 07:26:29;;;;;;;1.60;0.68;;;;;;;1.82;52.84;97956.47;5030555;28;20073;-78
2022/04/06 07:28:55;;;;;;;0.90;0.50;;;;;;;1.63;51.83;97918.91;4994411;28;20042;-78
2022/04/06 07:31:21;;;;;;;0.80;0.60;;;;;;;1.78;52.69;97941.97;5011766;28;20046;-79
2022/04/06 07:33:47;;;;;;;1.23;0.70;;;;;;;2.03;52.78;97925.84;4997974;28;20096;-78
2022/04/06 07:36:13;;;;;;;2.15;0.82;;;;;;;2.47;50.82;97932.69;5013636;28;20045;-78
2022/04/06 07:38:39;;;;;;;3.35;0.77;;;;;;;2.62;49.61;97877.25;4997852;28;20046;-79
2022/04/06 07:41:05;;;;;;;2.20;0.65;;;;;;;3.35;48.88;97912.09;5003797;28;20387;-79
2022/04/06 07:43:31;;;;;;;0.85;0.60;;;;;;;3.94;48.73;97914.41;4980007;28;20066;-78
2022/04/06 07:45:57;;;;;;;1.33;0.80;;;;;;;4.51;48.59;97937.09;5012900;28;20042;-79
2022/04/06 07:48:25;;;;;;;1.52;0.70;;;;;;;4.72;46.74;97912.94;5029195;28;20122;-79
2022/04/06 07:50:51;;;;;;;1.05;0.60;;;;;;;5.08;47.31;97942.59;4996916;28;20034;-78
2022/04/06 07:53:17;;;;;;;0.88;0.52;;;;;;;5.04;44.67;97902.38;4983413;28;20078;-78
2022/04/06 07:55:44;;;;;;;0.77;0.60;;;;;;;5.31;45.02;97914.97;4994590;28;20037;-79
2022/04/06 07:58:10;;;;;;;1.63;0.70;;;;;;;5.64;47.42;97935.16;5005659;28;20046;-78
2022/04/06 08:00:36;;;;;;;2.28;0.75;;;;;;;5.61;45.31;97910.31;4964731;28;20035;-79
2022/04/06 08:03:02;;;;;;;2.95;0.70;;;;;;;5.68;47.21;97896.50;4996894;28;20192;-78
2022/04/06 08:05:28;;;;;;;2.78;0.60;;;;;;;5.82;46.01;97893.75;4983606;28;20034;-80
2022/04/06 08:07:54;;;;;;;1.88;0.70;;;;;;;6.31;43.62;97922.25;5009973;28;20412;-78
2022/04/06 08:10:20;;;;;;;1.95;0.60;;;;;;;6.43;41.99;97882.59;4995665;28;20042;-79
2022/04/06 08:12:46;;;;;;;0.88;0.50;;;;;;;6.78;42.51;97894.00;4995313;28;20144;-78
2022/04/06 08:15:12;;;;;;;2.35;0.50;;;;;;;7.20;42.20;97891.56;4996165;28;20034;-79
2022/04/06 08:17:42;;;;;;;;;;;;;;;7.36;40.50;97934.22;4991195;28;20043;-78
2022/04/06 08:20:08;;;;;;;2.28;0.70;;;;;;;6.97;42.94;97890.25;5016671;28;19913;-79
2022/04/06 08:22:34;;;;;;;4.53;1.27;;;;;;;7.16;43.68;97913.13;4997760;28;20045;-79
2022/04/06 08:24:59;;;;;;;1.10;0.55;;;;;;;7.23;43.87;97922.44;4983229;28;20069;-77
2022/04/06 08:27:27;;;;;;;1.00;0.40;;;;;;;7.43;40.87;97909.19;5014801;28;20041;-80
2022/04/06 08:29:55;;;;;;;0.80;0.50;;;;;;;7.86;43.09;97909.13;4968845;28;20405;-79
2022/04/06 08:32:21;;;;;;;1.05;0.50;;;;;;;7.76;40.67;97887.00;5011971;28;20030;-80
2022/04/06 08:34:47;;;;;;;1.15;0.57;;;;;;;7.94;41.23;97893.50;5042517;28;20042;-80
2022/04/06 08:37:13;;;;;;;2.25;0.60;;;;;;;8.07;42.01;97848.44;4979398;28;20042;-79
2022/04/06 08:39:39;;;;;;;3.40;0.80;;;;;;;8.76;38.61;97922.59;4986190;28;20041;-79
2022/04/06 08:42:05;;;;;;;1.75;0.70;;;;;;;8.97;38.98;97902.25;4994455;28;20185;-81
2022/04/06 08:44:30;;;;;;;3.03;0.50;;;;;;;9.04;38.92;97915.00;4970893;28;20038;-78
2022/04/06 08:47:04;;;;;;;1.10;0.60;;;;;;;8.94;38.89;97869.59;5014893;28;20064;-79
2022/04/06 08:49:31;;;;;;;1.08;0.85;;;;;;;9.62;37.41;97917.75;4976923;28;20070;-80
2022/04/06 08:51:56;;;;;;;1.55;0.57;;;;;;;9.75;36.57;97918.25;5005411;28;20058;-81
2022/04/06 08:54:22;;;;;;;2.95;0.55;;;;;;;9.42;37.19;97901.03;4981707;28;20070;-78
2022/04/06 08:56:48;;;;;;;0.77;0.60;;;;;;;9.23;39.17;97910.19;4998460;28;20038;-80
2022/04/06 08:59:14;;;;;;;1.17;0.60;;;;;;;9.33;39.38;97910.78;5027529;28;20057;-80
2022/04/06 09:01:40;;;;;;;2.58;0.70;;;;;;;9.54;37.12;97914.53;4985642;28;20497;-78
2022/04/06 09:04:06;;;;;;;1.67;0.60;;;;;;;10.07;35.16;97900.00;5000489;28;20038;-78
2022/04/06 09:06:39;;;;;;;1.27;0.65;;;;;;;10.25;34.43;97877.91;4978777;28;20038;-82
2022/04/06 09:09:05;;;;;;;1.35;0.65;;;;;;;10.66;33.89;97907.69;4997824;28;20425;-79
2022/04/06 09:11:31;;;;;;;2.45;0.50;;;;;;;10.58;33.52;97909.72;4983231;28;20038;-79
2022/04/06 09:13:57;;;;;;;;;;;;;;;10.08;31.92;97899.16;5015629;28;20046;-78
2022/04/06 09:16:25;;;;;;;2.47;0.98;;;;;;;9.33;32.47;97900.44;5011631;28;19913;-80
2022/04/06 09:18:51;;;;;;;3.25;0.63;;;;;;;9.57;33.96;97914.44;4999962;28;20497;-79
2022/04/06 09:21:17;;;;;;;3.20;0.77;;;;;;;9.84;32.78;97897.25;4999013;28;20054;-79
2022/04/06 09:23:49;;;;;;;2.88;0.70;;;;;;;9.86;32.00;97888.56;4977813;28;20109;-81
2022/04/06 09:26:22;;;;;;;1.70;0.70;;;;;;;9.31;33.02;97877.19;5004519;28;20051;-79
2022/04/06 09:28:49;;;;;;;2.15;0.63;;;;;;;9.27;33.23;97873.00;4980036;28;20050;-80
2022/04/06 09:31:18;;;;;;;1.95;0.52;;;;;;;9.45;32.22;97905.28;5000252;28;20034;-79
2022/04/06 09:34:00;;;;;;;1.83;0.60;;;;;;;9.55;32.10;97906.72;4988239;28;20049;-79
2022/04/06 09:36:27;;;;;;;0.90;0.60;;;;;;;9.51;32.00;97881.81;5013919;28;20053;-80
2022/04/06 09:38:53;;;;;;;0.68;0.50;;;;;;;10.02;31.83;97881.16;5012503;28;20026;-79
2022/04/06 09:41:19;;;;;;;5.45;0.70;;;;;;;10.47;29.66;97862.53;4996380;28;20049;-79
2022/04/06 09:43:50;;;;;;;1.02;0.50;;;;;;;11.20;29.60;97891.19;5007274;28;20492;-81
2022/04/06 09:49:18;;;;;;;1.75;0.50;;;;;;;11.54;27.89;97878.72;4964796;28;20417;-79
2022/04/06 09:51:47;;;;;;;0.95;0.50;;;;;;;11.45;28.54;97848.75;4978742;28;20038;-83
2022/04/06 09:54:13;;;;;;;0.98;0.60;;;;;;;11.49;27.95;97807.94;4967276;28;20038;-80
2022/04/06 09:56:40;;;;;;;1.38;0.68;;;;;;;11.73;27.12;97863.31;5006152;28;20054;-79
2022/04/06 09:59:06;;;;;;;0.65;0.45;;;;;;;12.20;26.68;97882.34;4991377;28;20054;-79
2022/04/06 10:01:33;;;;;;;2.53;0.40;;;;;;;12.49;26.22;97875.97;5002575;28;20050;-78
2022/04/06 10:04:12;;;;;;;2.03;0.65;;;;;;;12.48;27.03;97869.09;4979337;28;20049;-78
2022/04/06 10:06:39;;;;;;;1.85;0.80;;;;;;;11.89;26.29;97890.47;4987546;28;20094;-79
2022/04/06 10:09:10;;;;;;;3.03;0.70;;;;;;;11.79;26.93;97868.31;4999951;28;20051;-80
2022/04/06 10:11:38;;;;;;;1.52;0.57;;;;;;;12.37;27.93;97866.06;4986466;28;20440;-79
2022/04/06 10:14:05;;;;;;;1.38;0.60;;;;;;;12.83;27.32;97877.19;4996771;28;20070;-80
2022/04/06 10:16:32;;;;;;;0.75;0.50;;;;;;;13.19;26.68;97893.88;4994392;28;20053;-81
2022/04/06 10:18:58;;;;;;;1.55;0.60;;;;;;;13.21;26.46;97881.63;4989186;28;20039;-79
2022/04/06 10:21:26;;;;;;;1.45;0.65;;;;;;;13.16;27.34;97899.22;4997505;28;20043;-79
2022/04/06 10:24:05;;;;;;;2.33;0.60;;;;;;;13.46;26.59;97860.59;5023210;28;20034;-79
2022/04/06 10:26:31;;;;;;;1.20;0.60;;;;;;;13.49;26.52;97880.47;4966406;28;20516;-80
2022/04/06 10:28:56;;;;;;;;;;;;;;;13.02;27.39;97879.91;4989388;28;20086;-80
2022/04/06 10:31:22;;;;;;;1.35;0.60;;;;;;;11.62;27.63;97867.16;5002171;28;19925;-81
2022/04/06 10:33:48;;;;;;;;;;;;;;;11.68;28.48;97892.94;5010804;28;20051;-81
2022/04/06 10:36:19;;;;;;;3.13;0.50;;;;;;;11.80;28.55;97870.00;4999191;28;20407;-79
2022/04/06 10:39:06;;;;;;;2.30;0.50;;;;;;;11.84;28.39;97892.38;4965336;28;20043;-79
2022/04/06 10:42:15;;;;;;;0.75;0.43;;;;;;;10.96;28.89;97862.66;4982442;28;20046;-78
2022/04/06 10:44:41;;;;;;;1.35;0.60;;;;;;;10.57;29.95;97887.25;5013475;28;20053;-78
2022/04/06 10:47:10;;;;;;;;;;;;;;;10.26;30.43;97899.47;4983472;28;20573;-80
2022/04/06 10:49:37;;;;;;;4.97;0.70;;;;;;;10.37;28.82;97866.31;4999496;28;20008;-81
2022/04/06 10:52:26;;;;;;;;;;;;;;;10.40;29.46;97902.47;5002431;28;20049;-80
